sensor_id;sensor_type;location;lat;lon;timestamp;temperature;humidity
67354;SHT30;54238;52.278;21.056;2023-02-01T00:01:08;4.16;81.93
67354;SHT30;54238;52.278;21.056;2023-02-01T00:03:41;4.19;81.98
67354;SHT30;54238;52.278;21.056;2023-02-01T00:06:08;4.21;82.00
67354;SHT30;54238;52.278;21.056;2023-02-01T00:08:41;4.24;81.94
67354;SHT30;54238;52.278;21.056;2023-02-01T00:11:11;4.27;81.93
67354;SHT30;54238;52.278;21.056;2023-02-01T00:13:40;4.31;81.93
67354;SHT30;54238;52.278;21.056;2023-02-01T00:16:18;4.34;81.87
67354;SHT30;54238;52.278;21.056;2023-02-01T00:18:58;4.39;81.68
67354;SHT30;54238;52.278;21.056;2023-02-01T00:21:44;4.43;81.63
67354;SHT30;54238;52.278;21.056;2023-02-01T00:24:12;4.46;81.53
67354;SHT30;54238;52.278;21.056;2023-02-01T00:26:44;4.49;81.44
67354;SHT30;54238;52.278;21.056;2023-02-01T00:29:15;4.52;81.30
67354;SHT30;54238;52.278;21.056;2023-02-01T00:31:50;4.54;81.06
67354;SHT30;54238;52.278;21.056;2023-02-01T00:34:23;4.55;80.60
67354;SHT30;54238;52.278;21.056;2023-02-01T00:36:55;4.60;80.52
67354;SHT30;54238;52.278;21.056;2023-02-01T00:39:28;4.60;80.38
67354;SHT30;54238;52.278;21.056;2023-02-01T00:41:58;4.62;80.22
67354;SHT30;54238;52.278;21.056;2023-02-01T00:44:31;4.64;80.02
67354;SHT30;54238;52.278;21.056;2023-02-01T00:47:03;4.65;79.63
67354;SHT30;54238;52.278;21.056;2023-02-01T00:49:37;4.69;78.85
67354;SHT30;54238;52.278;21.056;2023-02-01T00:52:04;4.75;78.76
67354;SHT30;54238;52.278;21.056;2023-02-01T00:54:39;4.77;78.24
67354;SHT30;54238;52.278;21.056;2023-02-01T00:57:09;4.79;77.52
67354;SHT30;54238;52.278;21.056;2023-02-01T00:59:46;4.82;77.22
67354;SHT30;54238;52.278;21.056;2023-02-01T01:02:16;4.85;76.98
67354;SHT30;54238;52.278;21.056;2023-02-01T01:04:43;4.85;76.85
67354;SHT30;54238;52.278;21.056;2023-02-01T01:07:11;4.86;76.96
67354;SHT30;54238;52.278;21.056;2023-02-01T01:09:41;4.84;76.98
67354;SHT30;54238;52.278;21.056;2023-02-01T01:12:13;4.83;77.09
67354;SHT30;54238;52.278;21.056;2023-02-01T01:14:40;4.83;76.95
67354;SHT30;54238;52.278;21.056;2023-02-01T01:17:10;4.79;76.38
67354;SHT30;54238;52.278;21.056;2023-02-01T01:19:40;4.79;76.01
67354;SHT30;54238;52.278;21.056;2023-02-01T01:22:09;4.76;75.92
67354;SHT30;54238;52.278;21.056;2023-02-01T01:24:36;4.76;76.01
67354;SHT30;54238;52.278;21.056;2023-02-01T01:27:05;4.72;75.93
67354;SHT30;54238;52.278;21.056;2023-02-01T01:29:32;4.69;75.66
67354;SHT30;54238;52.278;21.056;2023-02-01T01:32:06;4.65;75.71
67354;SHT30;54238;52.278;21.056;2023-02-01T01:34:33;4.63;75.52
67354;SHT30;54238;52.278;21.056;2023-02-01T01:37:02;4.63;75.64
67354;SHT30;54238;52.278;21.056;2023-02-01T01:39:29;4.61;75.64
67354;SHT30;54238;52.278;21.056;2023-02-01T01:41:58;4.61;75.45
67354;SHT30;54238;52.278;21.056;2023-02-01T01:47:41;4.60;75.11
67354;SHT30;54238;52.278;21.056;2023-02-01T01:50:14;4.60;75.11
67354;SHT30;54238;52.278;21.056;2023-02-01T01:52:49;4.58;74.99
67354;SHT30;54238;52.278;21.056;2023-02-01T01:55:24;4.57;74.89
67354;SHT30;54238;52.278;21.056;2023-02-01T01:58:19;4.57;74.86
67354;SHT30;54238;52.278;21.056;2023-02-01T02:00:53;4.57;74.86
67354;SHT30;54238;52.278;21.056;2023-02-01T02:03:30;4.59;74.86
67354;SHT30;54238;52.278;21.056;2023-02-01T02:06:03;4.58;74.67
67354;SHT30;54238;52.278;21.056;2023-02-01T02:08:50;4.57;74.50
67354;SHT30;54238;52.278;21.056;2023-02-01T02:11:17;4.57;74.53
67354;SHT30;54238;52.278;21.056;2023-02-01T02:13:46;4.57;74.56
67354;SHT30;54238;52.278;21.056;2023-02-01T02:22:48;4.55;74.05
67354;SHT30;54238;52.278;21.056;2023-02-01T02:32:15;4.53;73.60
67354;SHT30;54238;52.278;21.056;2023-02-01T02:37:58;4.52;73.59
67354;SHT30;54238;52.278;21.056;2023-02-01T02:44:13;4.53;73.28
67354;SHT30;54238;52.278;21.056;2023-02-01T02:47:36;4.52;73.18
67354;SHT30;54238;52.278;21.056;2023-02-01T02:53:10;4.53;73.04
67354;SHT30;54238;52.278;21.056;2023-02-01T02:56:03;4.54;73.09
67354;SHT30;54238;52.278;21.056;2023-02-01T02:58:51;4.55;73.18
67354;SHT30;54238;52.278;21.056;2023-02-01T03:01:42;4.55;73.16
67354;SHT30;54238;52.278;21.056;2023-02-01T03:04:28;4.57;73.27
67354;SHT30;54238;52.278;21.056;2023-02-01T03:07:14;4.57;73.32
67354;SHT30;54238;52.278;21.056;2023-02-01T03:10:24;4.57;73.37
67354;SHT30;54238;52.278;21.056;2023-02-01T03:19:03;4.56;73.54
67354;SHT30;54238;52.278;21.056;2023-02-01T03:22:28;4.54;73.66
67354;SHT30;54238;52.278;21.056;2023-02-01T03:32:36;4.49;73.83
67354;SHT30;54238;52.278;21.056;2023-02-01T03:35:28;4.49;74.06
67354;SHT30;54238;52.278;21.056;2023-02-01T03:38:11;4.47;74.63
67354;SHT30;54238;52.278;21.056;2023-02-01T03:40:40;4.44;75.14
67354;SHT30;54238;52.278;21.056;2023-02-01T03:43:12;4.40;75.47
67354;SHT30;54238;52.278;21.056;2023-02-01T03:45:50;4.37;75.73
67354;SHT30;54238;52.278;21.056;2023-02-01T03:48:27;4.32;76.02
67354;SHT30;54238;52.278;21.056;2023-02-01T03:51:01;4.28;76.21
67354;SHT30;54238;52.278;21.056;2023-02-01T03:53:35;4.24;76.48
67354;SHT30;54238;52.278;21.056;2023-02-01T03:56:09;4.23;76.65
67354;SHT30;54238;52.278;21.056;2023-02-01T03:58:41;4.21;76.88
67354;SHT30;54238;52.278;21.056;2023-02-01T04:01:08;4.17;77.06
67354;SHT30;54238;52.278;21.056;2023-02-01T04:03:42;4.15;77.20
67354;SHT30;54238;52.278;21.056;2023-02-01T04:06:09;4.14;77.30
67354;SHT30;54238;52.278;21.056;2023-02-01T04:08:36;4.14;77.47
67354;SHT30;54238;52.278;21.056;2023-02-01T04:11:13;4.13;77.67
67354;SHT30;54238;52.278;21.056;2023-02-01T04:13:45;4.11;77.93
67354;SHT30;54238;52.278;21.056;2023-02-01T04:16:14;4.09;77.99
67354;SHT30;54238;52.278;21.056;2023-02-01T04:18:58;4.09;77.92
67354;SHT30;54238;52.278;21.056;2023-02-01T04:21:28;4.11;77.78
67354;SHT30;54238;52.278;21.056;2023-02-01T04:23:56;4.12;77.61
67354;SHT30;54238;52.278;21.056;2023-02-01T04:26:25;4.15;77.38
67354;SHT30;54238;52.278;21.056;2023-02-01T04:28:54;4.18;77.25
67354;SHT30;54238;52.278;21.056;2023-02-01T04:31:24;4.22;77.00
67354;SHT30;54238;52.278;21.056;2023-02-01T04:33:58;4.24;76.95
67354;SHT30;54238;52.278;21.056;2023-02-01T04:36:29;4.25;76.74
67354;SHT30;54238;52.278;21.056;2023-02-01T04:39:00;4.28;76.58
67354;SHT30;54238;52.278;21.056;2023-02-01T04:41:27;4.30;76.37
67354;SHT30;54238;52.278;21.056;2023-02-01T04:43:56;4.31;76.04
67354;SHT30;54238;52.278;21.056;2023-02-01T04:46:27;4.32;75.94
67354;SHT30;54238;52.278;21.056;2023-02-01T04:48:56;4.36;75.79
67354;SHT30;54238;52.278;21.056;2023-02-01T04:51:28;4.36;75.52
67354;SHT30;54238;52.278;21.056;2023-02-01T04:53:59;4.40;75.21
67354;SHT30;54238;52.278;21.056;2023-02-01T04:56:26;4.43;75.21
67354;SHT30;54238;52.278;21.056;2023-02-01T04:58:56;4.45;74.99
67354;SHT30;54238;52.278;21.056;2023-02-01T05:01:26;4.47;74.77
67354;SHT30;54238;52.278;21.056;2023-02-01T05:03:53;4.46;74.60
67354;SHT30;54238;52.278;21.056;2023-02-01T05:06:23;4.48;74.61
67354;SHT30;54238;52.278;21.056;2023-02-01T05:08:50;4.48;74.48
67354;SHT30;54238;52.278;21.056;2023-02-01T05:11:20;4.49;74.44
67354;SHT30;54238;52.278;21.056;2023-02-01T05:14:11;4.48;74.31
67354;SHT30;54238;52.278;21.056;2023-02-01T05:16:38;4.48;74.24
67354;SHT30;54238;52.278;21.056;2023-02-01T05:19:14;4.49;74.25
67354;SHT30;54238;52.278;21.056;2023-02-01T05:21:42;4.46;74.21
67354;SHT30;54238;52.278;21.056;2023-02-01T05:24:09;4.48;74.15
67354;SHT30;54238;52.278;21.056;2023-02-01T05:26:51;4.48;74.16
67354;SHT30;54238;52.278;21.056;2023-02-01T05:29:20;4.50;74.19
67354;SHT30;54238;52.278;21.056;2023-02-01T05:31:47;4.50;74.09
67354;SHT30;54238;52.278;21.056;2023-02-01T05:34:17;4.51;74.01
67354;SHT30;54238;52.278;21.056;2023-02-01T05:36:49;4.51;73.83
67354;SHT30;54238;52.278;21.056;2023-02-01T05:39:19;4.50;73.62
67354;SHT30;54238;52.278;21.056;2023-02-01T05:41:46;4.51;73.56
67354;SHT30;54238;52.278;21.056;2023-02-01T05:44:15;4.52;73.52
67354;SHT30;54238;52.278;21.056;2023-02-01T05:46:47;4.52;73.45
67354;SHT30;54238;52.278;21.056;2023-02-01T05:49:19;4.51;73.46
67354;SHT30;54238;52.278;21.056;2023-02-01T05:51:46;4.51;73.45
67354;SHT30;54238;52.278;21.056;2023-02-01T05:54:20;4.52;73.57
67354;SHT30;54238;52.278;21.056;2023-02-01T05:56:52;4.52;73.55
67354;SHT30;54238;52.278;21.056;2023-02-01T05:59:21;4.51;73.48
67354;SHT30;54238;52.278;21.056;2023-02-01T06:01:53;4.52;73.50
67354;SHT30;54238;52.278;21.056;2023-02-01T06:04:22;4.53;73.44
67354;SHT30;54238;52.278;21.056;2023-02-01T06:06:55;4.54;73.39
67354;SHT30;54238;52.278;21.056;2023-02-01T06:09:22;4.54;73.45
67354;SHT30;54238;52.278;21.056;2023-02-01T06:11:51;4.54;73.48
67354;SHT30;54238;52.278;21.056;2023-02-01T06:14:21;4.55;73.61
67354;SHT30;54238;52.278;21.056;2023-02-01T06:16:53;4.53;73.58
67354;SHT30;54238;52.278;21.056;2023-02-01T06:19:23;4.54;73.61
67354;SHT30;54238;52.278;21.056;2023-02-01T06:21:53;4.54;73.64
67354;SHT30;54238;52.278;21.056;2023-02-01T06:24:21;4.54;73.61
67354;SHT30;54238;52.278;21.056;2023-02-01T06:26:48;4.55;73.67
67354;SHT30;54238;52.278;21.056;2023-02-01T06:29:15;4.57;73.68
67354;SHT30;54238;52.278;21.056;2023-02-01T06:31:44;4.56;73.72
67354;SHT30;54238;52.278;21.056;2023-02-01T06:34:17;4.57;73.68
67354;SHT30;54238;52.278;21.056;2023-02-01T06:36:48;4.57;73.70
67354;SHT30;54238;52.278;21.056;2023-02-01T06:39:18;4.58;73.69
67354;SHT30;54238;52.278;21.056;2023-02-01T06:41:45;4.61;73.72
67354;SHT30;54238;52.278;21.056;2023-02-01T06:44:14;4.55;73.71
67354;SHT30;54238;52.278;21.056;2023-02-01T06:46:42;4.57;73.62
67354;SHT30;54238;52.278;21.056;2023-02-01T06:49:09;4.58;73.62
67354;SHT30;54238;52.278;21.056;2023-02-01T06:51:39;4.59;73.63
67354;SHT30;54238;52.278;21.056;2023-02-01T06:54:09;4.61;73.57
67354;SHT30;54238;52.278;21.056;2023-02-01T06:56:36;4.61;73.53
67354;SHT30;54238;52.278;21.056;2023-02-01T06:59:06;4.61;73.56
67354;SHT30;54238;52.278;21.056;2023-02-01T07:01:37;4.61;73.59
67354;SHT30;54238;52.278;21.056;2023-02-01T07:04:04;4.61;73.48
67354;SHT30;54238;52.278;21.056;2023-02-01T07:06:33;4.62;73.56
67354;SHT30;54238;52.278;21.056;2023-02-01T07:09:02;4.63;73.58
67354;SHT30;54238;52.278;21.056;2023-02-01T07:11:32;4.59;73.44
67354;SHT30;54238;52.278;21.056;2023-02-01T07:14:00;4.62;73.50
67354;SHT30;54238;52.278;21.056;2023-02-01T07:16:29;4.60;73.54
67354;SHT30;54238;52.278;21.056;2023-02-01T07:18:57;4.61;73.53
67354;SHT30;54238;52.278;21.056;2023-02-01T07:21:26;4.59;73.51
67354;SHT30;54238;52.278;21.056;2023-02-01T07:24:00;4.59;73.64
67354;SHT30;54238;52.278;21.056;2023-02-01T07:26:27;4.59;73.63
67354;SHT30;54238;52.278;21.056;2023-02-01T07:28:57;4.59;73.54
67354;SHT30;54238;52.278;21.056;2023-02-01T07:31:27;4.60;73.54
67354;SHT30;54238;52.278;21.056;2023-02-01T07:33:58;4.60;73.45
67354;SHT30;54238;52.278;21.056;2023-02-01T07:36:29;4.60;73.47
67354;SHT30;54238;52.278;21.056;2023-02-01T07:38:57;4.65;73.60
67354;SHT30;54238;52.278;21.056;2023-02-01T07:41:27;4.65;73.68
67354;SHT30;54238;52.278;21.056;2023-02-01T07:43:59;4.64;73.88
67354;SHT30;54238;52.278;21.056;2023-02-01T07:46:29;4.65;74.16
67354;SHT30;54238;52.278;21.056;2023-02-01T07:48:58;4.63;74.31
67354;SHT30;54238;52.278;21.056;2023-02-01T07:51:27;4.62;74.22
67354;SHT30;54238;52.278;21.056;2023-02-01T07:53:54;4.63;74.40
67354;SHT30;54238;52.278;21.056;2023-02-01T07:56:23;4.63;74.42
67354;SHT30;54238;52.278;21.056;2023-02-01T07:58:52;4.63;74.42
67354;SHT30;54238;52.278;21.056;2023-02-01T08:01:27;4.62;74.37
67354;SHT30;54238;52.278;21.056;2023-02-01T08:03:59;4.63;74.37
67354;SHT30;54238;52.278;21.056;2023-02-01T08:06:30;4.61;74.59
67354;SHT30;54238;52.278;21.056;2023-02-01T08:09:03;4.60;74.57
67354;SHT30;54238;52.278;21.056;2023-02-01T08:11:39;4.61;74.75
67354;SHT30;54238;52.278;21.056;2023-02-01T08:14:06;4.61;74.76
67354;SHT30;54238;52.278;21.056;2023-02-01T08:16:35;4.62;74.73
67354;SHT30;54238;52.278;21.056;2023-02-01T08:19:04;4.65;74.73
67354;SHT30;54238;52.278;21.056;2023-02-01T08:21:33;4.66;74.61
67354;SHT30;54238;52.278;21.056;2023-02-01T08:24:04;4.68;74.39
67354;SHT30;54238;52.278;21.056;2023-02-01T08:26:37;4.71;74.32
67354;SHT30;54238;52.278;21.056;2023-02-01T08:29:07;4.76;74.39
67354;SHT30;54238;52.278;21.056;2023-02-01T08:31:37;4.80;74.14
67354;SHT30;54238;52.278;21.056;2023-02-01T08:34:07;4.81;73.83
67354;SHT30;54238;52.278;21.056;2023-02-01T08:36:41;4.83;73.71
67354;SHT30;54238;52.278;21.056;2023-02-01T08:39:09;4.82;73.79
67354;SHT30;54238;52.278;21.056;2023-02-01T08:41:39;4.84;73.61
67354;SHT30;54238;52.278;21.056;2023-02-01T08:44:26;4.85;73.38
67354;SHT30;54238;52.278;21.056;2023-02-01T08:46:54;4.90;73.16
67354;SHT30;54238;52.278;21.056;2023-02-01T08:49:23;4.92;73.39
67354;SHT30;54238;52.278;21.056;2023-02-01T08:51:53;4.89;73.85
67354;SHT30;54238;52.278;21.056;2023-02-01T08:54:25;4.86;74.15
67354;SHT30;54238;52.278;21.056;2023-02-01T08:56:55;4.84;74.64
67354;SHT30;54238;52.278;21.056;2023-02-01T08:59:24;4.79;74.96
67354;SHT30;54238;52.278;21.056;2023-02-01T09:01:51;4.77;75.16
67354;SHT30;54238;52.278;21.056;2023-02-01T09:04:23;4.78;75.02
67354;SHT30;54238;52.278;21.056;2023-02-01T09:06:50;4.84;74.99
67354;SHT30;54238;52.278;21.056;2023-02-01T09:09:17;4.88;74.42
67354;SHT30;54238;52.278;21.056;2023-02-01T09:11:49;4.94;74.30
67354;SHT30;54238;52.278;21.056;2023-02-01T09:14:21;4.99;73.88
67354;SHT30;54238;52.278;21.056;2023-02-01T09:16:51;5.04;73.38
67354;SHT30;54238;52.278;21.056;2023-02-01T09:19:18;5.07;72.81
67354;SHT30;54238;52.278;21.056;2023-02-01T09:21:45;5.12;72.63
67354;SHT30;54238;52.278;21.056;2023-02-01T09:24:14;5.12;72.09
67354;SHT30;54238;52.278;21.056;2023-02-01T09:26:46;5.17;71.65
67354;SHT30;54238;52.278;21.056;2023-02-01T09:29:16;5.24;71.17
67354;SHT30;54238;52.278;21.056;2023-02-01T09:31:47;5.29;70.98
67354;SHT30;54238;52.278;21.056;2023-02-01T09:34:17;5.32;70.69
67354;SHT30;54238;52.278;21.056;2023-02-01T09:36:46;5.37;70.26
67354;SHT30;54238;52.278;21.056;2023-02-01T09:39:20;5.43;69.92
67354;SHT30;54238;52.278;21.056;2023-02-01T09:47:57;5.71;69.35
67354;SHT30;54238;52.278;21.056;2023-02-01T09:50:37;5.78;68.60
67354;SHT30;54238;52.278;21.056;2023-02-01T09:53:27;5.86;68.24
67354;SHT30;54238;52.278;21.056;2023-02-01T09:56:02;5.93;67.92
67354;SHT30;54238;52.278;21.056;2023-02-01T09:58:38;5.93;67.93
67354;SHT30;54238;52.278;21.056;2023-02-01T10:01:22;5.90;67.87
67354;SHT30;54238;52.278;21.056;2023-02-01T10:04:06;5.85;67.81
67354;SHT30;54238;52.278;21.056;2023-02-01T10:09:58;5.82;67.76
67354;SHT30;54238;52.278;21.056;2023-02-01T10:30:18;5.86;67.72
67354;SHT30;54238;52.278;21.056;2023-02-01T10:33:01;5.83;67.79
67354;SHT30;54238;52.278;21.056;2023-02-01T10:35:53;5.83;68.02
67354;SHT30;54238;52.278;21.056;2023-02-01T10:38:32;5.81;68.05
67354;SHT30;54238;52.278;21.056;2023-02-01T10:43:51;5.83;68.43
67354;SHT30;54238;52.278;21.056;2023-02-01T10:46:23;5.86;68.46
67354;SHT30;54238;52.278;21.056;2023-02-01T10:48:55;5.87;68.50
67354;SHT30;54238;52.278;21.056;2023-02-01T10:51:36;5.88;68.46
67354;SHT30;54238;52.278;21.056;2023-02-01T10:54:16;5.91;68.26
67354;SHT30;54238;52.278;21.056;2023-02-01T10:56:58;5.99;68.23
67354;SHT30;54238;52.278;21.056;2023-02-01T10:59:28;6.08;67.89
67354;SHT30;54238;52.278;21.056;2023-02-01T11:02:11;6.29;67.19
67354;SHT30;54238;52.278;21.056;2023-02-01T11:05:03;6.41;67.08
67354;SHT30;54238;52.278;21.056;2023-02-01T11:07:46;6.47;66.84
67354;SHT30;54238;52.278;21.056;2023-02-01T11:10:38;6.51;66.83
67354;SHT30;54238;52.278;21.056;2023-02-01T11:13:16;6.51;66.77
67354;SHT30;54238;52.278;21.056;2023-02-01T11:15:54;6.49;66.79
67354;SHT30;54238;52.278;21.056;2023-02-01T11:18:30;6.43;66.79
67354;SHT30;54238;52.278;21.056;2023-02-01T11:21:04;6.36;66.73
67354;SHT30;54238;52.278;21.056;2023-02-01T11:23:45;6.32;66.93
67354;SHT30;54238;52.278;21.056;2023-02-01T11:26:14;6.31;67.13
67354;SHT30;54238;52.278;21.056;2023-02-01T11:29:08;6.27;67.27
67354;SHT30;54238;52.278;21.056;2023-02-01T11:31:44;6.23;67.37
67354;SHT30;54238;52.278;21.056;2023-02-01T11:34:14;6.19;67.48
67354;SHT30;54238;52.278;21.056;2023-02-01T11:39:31;6.17;67.95
67354;SHT30;54238;52.278;21.056;2023-02-01T11:47:54;6.31;67.78
67354;SHT30;54238;52.278;21.056;2023-02-01T11:50:29;6.52;67.37
67354;SHT30;54238;52.278;21.056;2023-02-01T11:59:12;6.90;65.86
67354;SHT30;54238;52.278;21.056;2023-02-01T12:02:11;6.89;66.02
67354;SHT30;54238;52.278;21.056;2023-02-01T12:25:58;6.26;69.95
67354;SHT30;54238;52.278;21.056;2023-02-01T12:31:38;6.10;71.40
67354;SHT30;54238;52.278;21.056;2023-02-01T12:37:58;6.16;71.82
67354;SHT30;54238;52.278;21.056;2023-02-01T12:47:31;6.12;71.42
67354;SHT30;54238;52.278;21.056;2023-02-01T12:52:54;6.24;71.06
67354;SHT30;54238;52.278;21.056;2023-02-01T12:58:44;6.35;69.31
67354;SHT30;54238;52.278;21.056;2023-02-01T13:01:25;6.39;69.25
67354;SHT30;54238;52.278;21.056;2023-02-01T13:07:07;6.51;69.28
67354;SHT30;54238;52.278;21.056;2023-02-01T13:15:29;6.63;69.11
67354;SHT30;54238;52.278;21.056;2023-02-01T13:18:09;6.63;68.99
67354;SHT30;54238;52.278;21.056;2023-02-01T13:23:41;6.51;68.36
67354;SHT30;54238;52.278;21.056;2023-02-01T13:26:30;6.49;68.22
67354;SHT30;54238;52.278;21.056;2023-02-01T13:29:05;6.49;67.98
67354;SHT30;54238;52.278;21.056;2023-02-01T13:43:15;6.46;69.21
67354;SHT30;54238;52.278;21.056;2023-02-01T13:45:57;6.41;69.76
67354;SHT30;54238;52.278;21.056;2023-02-01T13:51:47;6.30;69.95
67354;SHT30;54238;52.278;21.056;2023-02-01T13:56:58;6.17;70.26
67354;SHT30;54238;52.278;21.056;2023-02-01T14:05:08;6.07;70.81
67354;SHT30;54238;52.278;21.056;2023-02-01T14:07:41;6.07;70.80
67354;SHT30;54238;52.278;21.056;2023-02-01T14:23:59;6.50;70.33
67354;SHT30;54238;52.278;21.056;2023-02-01T14:29:51;6.54;69.49
67354;SHT30;54238;52.278;21.056;2023-02-01T14:32:31;6.44;69.67
67354;SHT30;54238;52.278;21.056;2023-02-01T14:35:18;6.30;70.01
67354;SHT30;54238;52.278;21.056;2023-02-01T14:38:00;6.20;70.15
67354;SHT30;54238;52.278;21.056;2023-02-01T14:40:33;6.14;70.15
67354;SHT30;54238;52.278;21.056;2023-02-01T14:43:03;6.08;70.12
67354;SHT30;54238;52.278;21.056;2023-02-01T14:58:52;6.00;69.88
67354;SHT30;54238;52.278;21.056;2023-02-01T15:01:34;6.02;69.82
67354;SHT30;54238;52.278;21.056;2023-02-01T15:04:18;6.03;69.76
67354;SHT30;54238;52.278;21.056;2023-02-01T15:07:12;6.01;69.15
67354;SHT30;54238;52.278;21.056;2023-02-01T15:09:45;6.02;69.04
67354;SHT30;54238;52.278;21.056;2023-02-01T15:12:23;6.01;69.12
67354;SHT30;54238;52.278;21.056;2023-02-01T15:17:54;6.02;69.36
67354;SHT30;54238;52.278;21.056;2023-02-01T15:20:28;6.00;69.65
67354;SHT30;54238;52.278;21.056;2023-02-01T15:23:02;5.97;69.82
67354;SHT30;54238;52.278;21.056;2023-02-01T15:25:44;5.96;70.14
67354;SHT30;54238;52.278;21.056;2023-02-01T15:28:16;5.94;70.34
67354;SHT30;54238;52.278;21.056;2023-02-01T15:30:58;5.90;70.26
67354;SHT30;54238;52.278;21.056;2023-02-01T15:33:29;5.91;70.43
67354;SHT30;54238;52.278;21.056;2023-02-01T15:38:43;5.88;70.50
67354;SHT30;54238;52.278;21.056;2023-02-01T15:41:31;5.88;70.36
67354;SHT30;54238;52.278;21.056;2023-02-01T15:46:34;5.86;70.16
67354;SHT30;54238;52.278;21.056;2023-02-01T15:49:12;5.86;70.21
67354;SHT30;54238;52.278;21.056;2023-02-01T15:51:52;5.86;70.13
67354;SHT30;54238;52.278;21.056;2023-02-01T15:54:54;5.84;70.08
67354;SHT30;54238;52.278;21.056;2023-02-01T15:57:33;5.85;70.30
67354;SHT30;54238;52.278;21.056;2023-02-01T16:02:57;5.82;70.87
67354;SHT30;54238;52.278;21.056;2023-02-01T16:05:34;5.81;71.14
67354;SHT30;54238;52.278;21.056;2023-02-01T16:08:17;5.75;71.58
67354;SHT30;54238;52.278;21.056;2023-02-01T16:10:51;5.73;71.66
67354;SHT30;54238;52.278;21.056;2023-02-01T16:13:21;5.69;72.10
67354;SHT30;54238;52.278;21.056;2023-02-01T16:15:48;5.65;72.39
67354;SHT30;54238;52.278;21.056;2023-02-01T16:18:20;5.63;72.66
67354;SHT30;54238;52.278;21.056;2023-02-01T16:20:51;5.61;72.88
67354;SHT30;54238;52.278;21.056;2023-02-01T16:23:19;5.57;73.13
67354;SHT30;54238;52.278;21.056;2023-02-01T16:25:47;5.54;73.11
67354;SHT30;54238;52.278;21.056;2023-02-01T16:28:14;5.55;73.14
67354;SHT30;54238;52.278;21.056;2023-02-01T16:30:43;5.52;73.41
67354;SHT30;54238;52.278;21.056;2023-02-01T16:33:18;5.49;73.47
67354;SHT30;54238;52.278;21.056;2023-02-01T16:35:48;5.49;73.49
67354;SHT30;54238;52.278;21.056;2023-02-01T16:38:18;5.45;73.61
67354;SHT30;54238;52.278;21.056;2023-02-01T16:43:29;5.43;73.61
67354;SHT30;54238;52.278;21.056;2023-02-01T16:48:45;5.43;73.61
67354;SHT30;54238;52.278;21.056;2023-02-01T16:51:18;5.42;73.63
67354;SHT30;54238;52.278;21.056;2023-02-01T16:53:50;5.41;73.69
67354;SHT30;54238;52.278;21.056;2023-02-01T16:56:24;5.38;73.67
67354;SHT30;54238;52.278;21.056;2023-02-01T16:59:02;5.34;73.74
67354;SHT30;54238;52.278;21.056;2023-02-01T17:01:32;5.34;73.58
67354;SHT30;54238;52.278;21.056;2023-02-01T17:03:59;5.33;73.52
67354;SHT30;54238;52.278;21.056;2023-02-01T17:06:30;5.33;73.61
67354;SHT30;54238;52.278;21.056;2023-02-01T17:09:01;5.31;73.65
67354;SHT30;54238;52.278;21.056;2023-02-01T17:11:32;5.27;73.90
67354;SHT30;54238;52.278;21.056;2023-02-01T17:14:14;5.27;73.92
67354;SHT30;54238;52.278;21.056;2023-02-01T17:16:47;5.29;73.83
67354;SHT30;54238;52.278;21.056;2023-02-01T17:19:20;5.30;73.83
67354;SHT30;54238;52.278;21.056;2023-02-01T17:21:55;5.28;73.68
67354;SHT30;54238;52.278;21.056;2023-02-01T17:24:55;5.30;73.61
67354;SHT30;54238;52.278;21.056;2023-02-01T17:27:22;5.31;73.60
67354;SHT30;54238;52.278;21.056;2023-02-01T17:29:55;5.34;73.61
67354;SHT30;54238;52.278;21.056;2023-02-01T17:32:23;5.34;73.75
67354;SHT30;54238;52.278;21.056;2023-02-01T17:34:54;5.33;73.83
67354;SHT30;54238;52.278;21.056;2023-02-01T17:37:25;5.34;73.85
67354;SHT30;54238;52.278;21.056;2023-02-01T17:40:01;5.34;73.92
67354;SHT30;54238;52.278;21.056;2023-02-01T17:42:29;5.32;74.11
67354;SHT30;54238;52.278;21.056;2023-02-01T17:45:08;5.32;74.13
67354;SHT30;54238;52.278;21.056;2023-02-01T17:47:51;5.33;74.19
67354;SHT30;54238;52.278;21.056;2023-02-01T17:50:20;5.32;74.19
67354;SHT30;54238;52.278;21.056;2023-02-01T17:52:52;5.29;74.25
67354;SHT30;54238;52.278;21.056;2023-02-01T17:55:27;5.28;74.31
67354;SHT30;54238;52.278;21.056;2023-02-01T17:57:57;5.25;74.36
67354;SHT30;54238;52.278;21.056;2023-02-01T18:00:24;5.22;74.48
67354;SHT30;54238;52.278;21.056;2023-02-01T18:02:51;5.19;74.74
67354;SHT30;54238;52.278;21.056;2023-02-01T18:05:24;5.16;75.30
67354;SHT30;54238;52.278;21.056;2023-02-01T18:08:09;5.13;75.72
67354;SHT30;54238;52.278;21.056;2023-02-01T18:10:36;5.08;76.10
67354;SHT30;54238;52.278;21.056;2023-02-01T18:13:08;5.04;76.35
67354;SHT30;54238;52.278;21.056;2023-02-01T18:15:39;5.00;76.59
67354;SHT30;54238;52.278;21.056;2023-02-01T18:18:06;4.96;76.93
67354;SHT30;54238;52.278;21.056;2023-02-01T18:20:39;4.94;76.88
67354;SHT30;54238;52.278;21.056;2023-02-01T18:23:13;4.93;76.99
67354;SHT30;54238;52.278;21.056;2023-02-01T18:25:51;4.91;76.96
67354;SHT30;54238;52.278;21.056;2023-02-01T18:28:20;4.87;76.84
67354;SHT30;54238;52.278;21.056;2023-02-01T18:30:50;4.85;76.68
67354;SHT30;54238;52.278;21.056;2023-02-01T18:33:19;4.84;76.56
67354;SHT30;54238;52.278;21.056;2023-02-01T18:35:49;4.85;76.45
67354;SHT30;54238;52.278;21.056;2023-02-01T18:38:19;4.83;76.59
67354;SHT30;54238;52.278;21.056;2023-02-01T18:40:50;4.76;76.57
67354;SHT30;54238;52.278;21.056;2023-02-01T18:43:19;4.71;76.66
67354;SHT30;54238;52.278;21.056;2023-02-01T18:45:54;4.67;76.57
67354;SHT30;54238;52.278;21.056;2023-02-01T18:48:24;4.64;76.53
67354;SHT30;54238;52.278;21.056;2023-02-01T18:50:53;4.63;76.61
67354;SHT30;54238;52.278;21.056;2023-02-01T18:53:23;4.62;76.70
67354;SHT30;54238;52.278;21.056;2023-02-01T18:55:53;4.62;76.87
67354;SHT30;54238;52.278;21.056;2023-02-01T18:58:25;4.63;77.01
67354;SHT30;54238;52.278;21.056;2023-02-01T19:00:59;4.62;77.27
67354;SHT30;54238;52.278;21.056;2023-02-01T19:03:36;4.62;77.37
67354;SHT30;54238;52.278;21.056;2023-02-01T19:06:06;4.61;77.46
67354;SHT30;54238;52.278;21.056;2023-02-01T19:08:36;4.63;77.50
67354;SHT30;54238;52.278;21.056;2023-02-01T19:11:08;4.64;77.33
67354;SHT30;54238;52.278;21.056;2023-02-01T19:13:38;4.65;77.23
67354;SHT30;54238;52.278;21.056;2023-02-01T19:16:10;4.64;77.02
67354;SHT30;54238;52.278;21.056;2023-02-01T19:18:41;4.66;76.96
67354;SHT30;54238;52.278;21.056;2023-02-01T19:21:18;4.64;77.01
67354;SHT30;54238;52.278;21.056;2023-02-01T19:23:45;4.64;77.07
67354;SHT30;54238;52.278;21.056;2023-02-01T19:26:15;4.64;77.28
67354;SHT30;54238;52.278;21.056;2023-02-01T19:28:48;4.64;77.38
67354;SHT30;54238;52.278;21.056;2023-02-01T19:31:15;4.64;77.51
67354;SHT30;54238;52.278;21.056;2023-02-01T19:33:43;4.64;77.59
67354;SHT30;54238;52.278;21.056;2023-02-01T19:36:10;4.63;77.70